Flight Track Log - Related Links

Times and Time Zones

All times are in EDT time to prevent confusion due to time zone crossing. See the N700MX flight status page for this flight to view local times or setup timezone preferences in your user account.

Time Position Orientation Groundspeed Altitude Reporting Facility
EDT Latitude Longitude Course Direction KTS MPH feet Rate Location/Type
Sun 01:26:38 PM 43.1036 -89.2883 61° Northeast 127 146 2,900  Level Chicago Center
Sun 01:27:39 PM 43.0742 -89.2469 134° Southeast 133 153 5,100 1,902 Climbing Chicago Center
Sun 01:28:41 PM 43.1006 -89.1992 53° Northeast 150 173 6,800 1,659 Climbing Chicago Center
Sun 01:29:42 PM 43.1294 -89.1489 52° Northeast 164 189 8,500 1,574 Climbing Chicago Center
Sun 01:30:43 PM 43.1589 -89.0978 52° Northeast 168 193 10,000 1,525 Climbing Chicago Center
Sun 01:31:00 PM 43.3115 -88.9964 61° Northeast  Level FlightAware Approximate
Sun 01:31:44 PM 43.1900 -89.0442 51° Northeast 174 200 11,600  Level Chicago Center
Sun 01:32:46 PM 43.2211 -88.9911 51° Northeast 177 204 13,100 1,463 Climbing Chicago Center
Sun 01:33:47 PM 43.2533 -88.9367 51° Northeast 182 209 14,600 1,475 Climbing Chicago Center
Sun 01:34:48 PM 43.2861 -88.8794 52° Northeast 190 219 16,100 1,415 Climbing Chicago Center
Sun 01:35:50 PM 43.3194 -88.8222 51° Northeast 191 220 17,500 1,220 Climbing Chicago Center
Sun 01:36:51 PM 43.3592 -88.7533 52° Northeast 197 227 18,600 1,131 Climbing Chicago Center
Sun 01:37:52 PM 43.3942 -88.6925 52° Northeast 202 232 19,800 1,131 Climbing Chicago Center
Sun 01:38:53 PM 43.4311 -88.6289 51° Northeast 210 242 20,900 1,122 Climbing Chicago Center
Sun 01:39:55 PM 43.4669 -88.5664 52° Northeast 211 243 22,100 1,073 Climbing Chicago Center
Sun 01:40:56 PM 43.5031 -88.5050 51° Northeast 214 246 23,100 1,131 Climbing Chicago Center
Sun 01:41:57 PM 43.5433 -88.4300 53° Northeast 216 249 24,400 927 Climbing Chicago Center
Sun 01:42:59 PM 43.5808 -88.3642 52° Northeast 216 249 25,000 293 Climbing Chicago Center
Sun 01:44:00 PM 43.6233 -88.2886 52° Northeast 243 280 25,000  Level Chicago Center
Sun 01:45:01 PM 43.6692 -88.2075 52° Northeast 263 303 25,000  Level Chicago Center
Sun 01:46:03 PM 43.7169 -88.1231 52° Northeast 276 318 25,000  Level Chicago Center
Sun 01:47:04 PM 43.7656 -88.0372 52° Northeast 282 325 25,000  Level Chicago Center
Sun 01:48:05 PM 43.8139 -87.9503 52° Northeast 284 327 25,000  Level Chicago Center
Sun 01:49:07 PM 43.8633 -87.8636 52° Northeast 286 329 25,000  Level Chicago Center
Sun 01:49:25 PM 43.8781 -87.8342 55° Northeast 286 329 25,000  Level Minneapolis Center
Sun 01:50:26 PM 43.9269 -87.7467 52° Northeast 286 329 25,000  Level Minneapolis Center
Sun 01:51:27 PM 43.9764 -87.6583 52° Northeast 288 331 25,000  Level Minneapolis Center
Sun 01:52:29 PM 44.0325 -87.5542 53° Northeast 289 333 25,000  Level Minneapolis Center
Sun 01:53:30 PM 44.0819 -87.4661 52° Northeast 288 331 25,000  Level Minneapolis Center
Sun 01:54:32 PM 44.1300 -87.3761 53° Northeast 289 333 25,000  Level Minneapolis Center
Sun 01:55:33 PM 44.1803 -87.2869 52° Northeast 291 335 25,000  Level Minneapolis Center
Sun 01:56:35 PM 44.2244 -87.2036 53° Northeast 292 336 25,000  Level Minneapolis Center
Sun 01:57:36 PM 44.2842 -87.0944 53° Northeast 294 338 25,000  Level Minneapolis Center
Sun 01:58:38 PM 44.3336 -87.0033 53° Northeast 294 338 25,000  Level Minneapolis Center
Sun 01:59:39 PM 44.3822 -86.9125 53° Northeast 292 336 25,000  Level Minneapolis Center
Sun 02:00:41 PM 44.4314 -86.8233 52° Northeast 291 335 25,000 -195 Level Minneapolis Center
Sun 02:01:42 PM 44.4800 -86.7339 53° Northeast 289 333 24,600 -885 Descending Minneapolis Center
Sun 02:02:43 PM 44.5317 -86.6372 53° Northeast 307 353 23,200 -780 Descending Minneapolis Center
Sun 02:03:45 PM 44.5831 -86.5403 53° Northeast 309 356 23,000 -97 Descending Minneapolis Center
Sun 02:04:47 PM 44.6306 -86.4500 54° Northeast 294 338 23,000  Level Minneapolis Center
Sun 02:05:48 PM 44.6717 -86.3733 53° Northeast 285 328 23,000  Level Minneapolis Center
Sun 02:06:50 PM 44.7264 -86.2694 53° Northeast 279 321 23,000  Level Minneapolis Center
Sun 02:07:51 PM 44.7725 -86.1836 53° Northeast 276 318 23,000  Level Minneapolis Center
Sun 02:08:53 PM 44.8186 -86.0975 53° Northeast 276 318 23,000  Level Minneapolis Center
Sun 02:09:54 PM 44.8722 -85.9928 54° Northeast 276 318 23,000  Level Minneapolis Center
Sun 02:11:08 PM 44.9172 -85.9050 54° Northeast 277 319 23,000 -444 Level Minneapolis Center
Sun 02:12:09 PM 44.9714 -85.8019 53° Northeast 273 314 22,000 -1,415 Descending Minneapolis Center
Sun 02:13:11 PM 45.0222 -85.7050 53° Northeast 297 342 20,100 -1,790 Descending Minneapolis Center
Sun 02:14:13 PM 45.0728 -85.6069 54° Northeast 306 352 18,300 -1,561 Descending Minneapolis Center
Sun 02:15:14 PM 45.1203 -85.5144 54° Northeast 295 339 16,900 -1,756 Descending Minneapolis Center
Sun 02:16:16 PM 45.1672 -85.4242 54° Northeast 290 334 14,700 -2,244 Descending Minneapolis Center
Sun 02:17:17 PM 45.2114 -85.3392 54° Northeast 281 323 12,300 -2,488 Descending Minneapolis Center
Sun 02:18:19 PM 45.2614 -85.2400 54° Northeast 269 310 9,600 -2,613 Descending Minneapolis Center
Sun 02:20:00 PM 45.3179 -85.0964 65° Northeast  Level FlightAware Approximate
Sun 02:27:00 PM 45.4167 -84.9000 55° Northeast  Level FlightAware Approximate
Sun 02:28:00 PM 45.4256 -84.9134 55° Northeast  Level Estimated
Sun 02:29:00 PM 45.4256 -84.9134 55° Northeast  Level Estimated
Sun 02:30:00 PM 45.4256 -84.9134 55° Northeast  Level Estimated

Login

Don't have an account? Register now (free) for customized features, flight alerts, and more!